sensor_id;sensor_type;location;lat;lon;timestamp;pressure;altitude;pressure_sealevel;temperature;humidity
13015;BME280;6573;57.696;11.950;2022-07-06T00:00:19;101327.97;;;16.65;100.00
13015;BME280;6573;57.696;11.950;2022-07-06T00:02:47;101338.75;;;16.59;100.00
13015;BME280;6573;57.696;11.950;2022-07-06T00:05:16;101328.03;;;16.62;100.00
13015;BME280;6573;57.696;11.950;2022-07-06T00:07:44;101318.22;;;16.66;100.00
13015;BME280;6573;57.696;11.950;2022-07-06T00:10:12;101331.59;;;16.61;100.00
13015;BME280;6573;57.696;11.950;2022-07-06T00:12:41;101335.28;;;16.54;100.00
13015;BME280;6573;57.696;11.950;2022-07-06T00:15:11;101329.84;;;16.60;100.00
13015;BME280;6573;57.696;11.950;2022-07-06T00:17:39;101320.78;;;16.70;100.00
13015;BME280;6573;57.696;11.950;2022-07-06T00:20:09;101323.50;;;16.67;100.00
13015;BME280;6573;57.696;11.950;2022-07-06T00:22:37;101320.94;;;16.64;100.00
13015;BME280;6573;57.696;11.950;2022-07-06T00:25:06;101326.16;;;16.67;100.00
13015;BME280;6573;57.696;11.950;2022-07-06T00:27:35;101335.06;;;16.66;100.00
13015;BME280;6573;57.696;11.950;2022-07-06T00:30:04;101338.66;;;16.62;100.00
13015;BME280;6573;57.696;11.950;2022-07-06T00:32:34;101342.09;;;16.67;100.00
13015;BME280;6573;57.696;11.950;2022-07-06T00:35:03;101336.72;;;16.70;100.00
13015;BME280;6573;57.696;11.950;2022-07-06T00:37:31;101334.22;;;16.64;100.00
13015;BME280;6573;57.696;11.950;2022-07-06T00:40:00;101336.88;;;16.63;100.00
13015;BME280;6573;57.696;11.950;2022-07-06T00:42:29;101340.38;;;16.66;100.00
13015;BME280;6573;57.696;11.950;2022-07-06T00:44:58;101339.53;;;16.63;100.00
13015;BME280;6573;57.696;11.950;2022-07-06T00:47:27;101331.59;;;16.61;100.00
13015;BME280;6573;57.696;11.950;2022-07-06T00:49:57;101334.13;;;16.67;100.00
13015;BME280;6573;57.696;11.950;2022-07-06T00:52:47;101330.47;;;16.74;100.00
13015;BME280;6573;57.696;11.950;2022-07-06T00:55:17;101328.75;;;16.70;100.00
13015;BME280;6573;57.696;11.950;2022-07-06T00:57:47;101334.91;;;16.72;100.00
13015;BME280;6573;57.696;11.950;2022-07-06T01:00:18;101332.34;;;16.69;100.00
13015;BME280;6573;57.696;11.950;2022-07-06T01:02:47;101319.91;;;16.71;100.00
13015;BME280;6573;57.696;11.950;2022-07-06T01:05:17;101316.63;;;16.57;100.00
13015;BME280;6573;57.696;11.950;2022-07-06T01:07:48;101330.78;;;16.59;100.00
13015;BME280;6573;57.696;11.950;2022-07-06T01:10:18;101317.41;;;16.62;100.00
13015;BME280;6573;57.696;11.950;2022-07-06T01:12:48;101333.28;;;16.65;100.00
13015;BME280;6573;57.696;11.950;2022-07-06T01:15:17;101324.38;;;16.69;100.00
13015;BME280;6573;57.696;11.950;2022-07-06T01:17:47;101314.84;;;16.58;100.00
13015;BME280;6573;57.696;11.950;2022-07-06T01:20:17;101324.56;;;16.57;100.00
13015;BME280;6573;57.696;11.950;2022-07-06T01:22:47;101307.91;;;16.49;100.00
13015;BME280;6573;57.696;11.950;2022-07-06T01:25:15;101320.13;;;16.59;100.00
13015;BME280;6573;57.696;11.950;2022-07-06T01:27:44;101315.88;;;16.49;100.00
13015;BME280;6573;57.696;11.950;2022-07-06T01:30:14;101321.34;;;16.40;100.00
13015;BME280;6573;57.696;11.950;2022-07-06T01:32:44;101331.81;;;16.49;100.00
13015;BME280;6573;57.696;11.950;2022-07-06T01:35:13;101325.81;;;16.38;100.00
13015;BME280;6573;57.696;11.950;2022-07-06T01:37:43;101335.53;;;16.39;100.00
13015;BME280;6573;57.696;11.950;2022-07-06T01:40:12;101330.19;;;16.42;100.00
13015;BME280;6573;57.696;11.950;2022-07-06T01:42:41;101326.66;;;16.40;100.00
13015;BME280;6573;57.696;11.950;2022-07-06T01:45:10;101324.03;;;16.39;100.00
13015;BME280;6573;57.696;11.950;2022-07-06T01:47:38;101323.06;;;16.44;100.00
13015;BME280;6573;57.696;11.950;2022-07-06T01:50:08;101321.25;;;16.46;100.00
13015;BME280;6573;57.696;11.950;2022-07-06T01:52:37;101326.59;;;16.43;100.00
13015;BME280;6573;57.696;11.950;2022-07-06T01:55:08;101322.97;;;16.47;100.00
13015;BME280;6573;57.696;11.950;2022-07-06T01:57:36;101325.56;;;16.50;100.00
13015;BME280;6573;57.696;11.950;2022-07-06T02:00:06;101319.38;;;16.51;100.00
13015;BME280;6573;57.696;11.950;2022-07-06T02:02:34;101311.41;;;16.51;100.00
13015;BME280;6573;57.696;11.950;2022-07-06T02:05:04;101302.69;;;16.43;100.00
13015;BME280;6573;57.696;11.950;2022-07-06T02:07:32;101314.09;;;16.48;100.00
13015;BME280;6573;57.696;11.950;2022-07-06T02:10:01;101322.97;;;16.47;100.00
13015;BME280;6573;57.696;11.950;2022-07-06T02:12:34;101323.06;;;16.44;100.00
13015;BME280;6573;57.696;11.950;2022-07-06T02:15:03;101314.28;;;16.39;100.00
13015;BME280;6573;57.696;11.950;2022-07-06T02:17:32;101323.94;;;16.45;100.00
13015;BME280;6573;57.696;11.950;2022-07-06T02:20:00;101312.44;;;16.44;100.00
13015;BME280;6573;57.696;11.950;2022-07-06T02:22:29;101314.16;;;16.45;100.00
13015;BME280;6573;57.696;11.950;2022-07-06T02:24:58;101312.44;;;16.44;100.00
13015;BME280;6573;57.696;11.950;2022-07-06T02:27:26;101316.16;;;16.34;100.00
13015;BME280;6573;57.696;11.950;2022-07-06T02:29:56;101325.81;;;16.40;100.00
13015;BME280;6573;57.696;11.950;2022-07-06T02:32:24;101309.91;;;16.37;100.00
13015;BME280;6573;57.696;11.950;2022-07-06T02:34:52;101323.28;;;16.32;100.00
13015;BME280;6573;57.696;11.950;2022-07-06T02:37:21;101315.22;;;16.37;100.00
13015;BME280;6573;57.696;11.950;2022-07-06T02:39:49;101316.03;;;16.40;100.00
13015;BME280;6573;57.696;11.950;2022-07-06T02:42:17;101312.34;;;16.47;100.00
13015;BME280;6573;57.696;11.950;2022-07-06T02:44:46;101285.13;;;16.36;100.00
13015;BME280;6573;57.696;11.950;2022-07-06T02:47:15;101303.44;;;16.51;100.00
13015;BME280;6573;57.696;11.950;2022-07-06T02:49:46;101310.56;;;16.49;100.00
13015;BME280;6573;57.696;11.950;2022-07-06T02:52:15;101307.03;;;16.47;100.00
13015;BME280;6573;57.696;11.950;2022-07-06T02:54:43;101303.53;;;16.45;100.00
13015;BME280;6573;57.696;11.950;2022-07-06T02:57:11;101310.56;;;16.49;100.00
13015;BME280;6573;57.696;11.950;2022-07-06T02:59:40;101310.63;;;16.46;100.00
13015;BME280;6573;57.696;11.950;2022-07-06T03:02:09;101305.31;;;16.46;100.00
13015;BME280;6573;57.696;11.950;2022-07-06T03:04:38;101304.31;;;16.50;100.00
13015;BME280;6573;57.696;11.950;2022-07-06T03:07:07;101305.09;;;16.58;100.00
13015;BME280;6573;57.696;11.950;2022-07-06T03:09:35;101305.09;;;16.58;100.00
13015;BME280;6573;57.696;11.950;2022-07-06T03:12:04;101310.56;;;16.49;100.00
13015;BME280;6573;57.696;11.950;2022-07-06T03:14:32;101299.88;;;16.52;100.00
13015;BME280;6573;57.696;11.950;2022-07-06T03:17:00;101306.88;;;16.59;100.00
13015;BME280;6573;57.696;11.950;2022-07-06T03:19:29;101306.88;;;16.59;100.00
13015;BME280;6573;57.696;11.950;2022-07-06T03:21:59;101301.53;;;16.59;100.00
13015;BME280;6573;57.696;11.950;2022-07-06T03:24:28;101301.41;;;16.65;100.00
13015;BME280;6573;57.696;11.950;2022-07-06T03:26:56;101301.53;;;16.59;100.00
13015;BME280;6573;57.696;11.950;2022-07-06T03:29:24;101301.34;;;16.68;100.00
13015;BME280;6573;57.696;11.950;2022-07-06T03:31:53;101304.91;;;16.67;100.00
13015;BME280;6573;57.696;11.950;2022-07-06T03:34:21;101304.84;;;16.70;100.00
13015;BME280;6573;57.696;11.950;2022-07-06T03:36:49;101294.41;;;16.61;100.00
13015;BME280;6573;57.696;11.950;2022-07-06T03:39:19;101306.63;;;16.71;100.00
13015;BME280;6573;57.696;11.950;2022-07-06T03:41:47;101299.41;;;16.76;100.00
13015;BME280;6573;57.696;11.950;2022-07-06T03:44:16;101311.69;;;16.83;100.00
13015;BME280;6573;57.696;11.950;2022-07-06T03:46:44;101305.31;;;16.91;100.00
13015;BME280;6573;57.696;11.950;2022-07-06T03:49:12;101306.09;;;16.96;100.00
13015;BME280;6573;57.696;11.950;2022-07-06T03:51:41;101306.16;;;16.93;100.00
13015;BME280;6573;57.696;11.950;2022-07-06T03:54:09;101314.97;;;16.95;100.00
13015;BME280;6573;57.696;11.950;2022-07-06T03:56:38;101311.41;;;16.96;100.00
13015;BME280;6573;57.696;11.950;2022-07-06T03:59:07;101305.38;;;16.89;100.00
13015;BME280;6573;57.696;11.950;2022-07-06T04:01:35;101310.69;;;16.88;100.00
13015;BME280;6573;57.696;11.950;2022-07-06T04:04:04;101317.09;;;16.77;100.00
13015;BME280;6573;57.696;11.950;2022-07-06T04:06:33;101322.16;;;16.90;100.00
13015;BME280;6573;57.696;11.950;2022-07-06T04:09:01;101317.03;;;16.80;100.00
13015;BME280;6573;57.696;11.950;2022-07-06T04:11:30;101311.69;;;16.83;100.00
13015;BME280;6573;57.696;11.950;2022-07-06T04:14:00;101304.59;;;16.82;100.00
13015;BME280;6573;57.696;11.950;2022-07-06T04:16:28;101325.53;;;16.98;100.00
13015;BME280;6573;57.696;11.950;2022-07-06T04:18:56;101320.22;;;16.98;100.00
13015;BME280;6573;57.696;11.950;2022-07-06T04:21:25;101312.97;;;17.06;100.00
13015;BME280;6573;57.696;11.950;2022-07-06T04:23:53;101321.72;;;17.11;100.00
13015;BME280;6573;57.696;11.950;2022-07-06T04:26:21;101322.59;;;17.11;100.00
13015;BME280;6573;57.696;11.950;2022-07-06T04:28:51;101323.53;;;17.09;100.00
13015;BME280;6573;57.696;11.950;2022-07-06T04:31:21;101326.97;;;17.14;100.00
13015;BME280;6573;57.696;11.950;2022-07-06T04:33:49;101317.25;;;17.13;100.00
13015;BME280;6573;57.696;11.950;2022-07-06T04:36:17;101320.72;;;17.16;100.00
13015;BME280;6573;57.696;11.950;2022-07-06T04:38:46;101316.19;;;17.20;100.00
13015;BME280;6573;57.696;11.950;2022-07-06T04:41:14;101311.03;;;17.14;100.00
13015;BME280;6573;57.696;11.950;2022-07-06T04:43:43;101317.97;;;17.19;100.00
13015;BME280;6573;57.696;11.950;2022-07-06T04:46:11;101318.66;;;17.29;100.00
13015;BME280;6573;57.696;11.950;2022-07-06T04:48:41;101328.38;;;17.30;100.00
13015;BME280;6573;57.696;11.950;2022-07-06T04:51:10;101319.63;;;17.25;100.00
13015;BME280;6573;57.696;11.950;2022-07-06T04:53:38;101317.97;;;17.21;100.00
13015;BME280;6573;57.696;11.950;2022-07-06T04:56:06;101328.59;;;17.21;100.00
13015;BME280;6573;57.696;11.950;2022-07-06T04:58:35;101327.78;;;17.17;100.00
13015;BME280;6573;57.696;11.950;2022-07-06T05:01:03;101324.28;;;17.15;100.00
13015;BME280;6573;57.696;11.950;2022-07-06T05:03:35;101302.34;;;17.06;100.00
13015;BME280;6573;57.696;11.950;2022-07-06T05:06:09;101328.59;;;17.21;100.00
13015;BME280;6573;57.696;11.950;2022-07-06T05:08:37;101337.13;;;17.35;100.00
13015;BME280;6573;57.696;11.950;2022-07-06T05:11:06;101326.78;;;17.23;100.00
13015;BME280;6573;57.696;11.950;2022-07-06T05:13:34;101347.81;;;17.33;100.00
13015;BME280;6573;57.696;11.950;2022-07-06T05:16:03;101339.09;;;17.27;100.00
13015;BME280;6573;57.696;11.950;2022-07-06T05:18:31;101339.91;;;17.30;100.00
13015;BME280;6573;57.696;11.950;2022-07-06T05:20:59;101346.16;;;17.28;100.00
13015;BME280;6573;57.696;11.950;2022-07-06T05:23:30;101337.28;;;17.29;100.00
13015;BME280;6573;57.696;11.950;2022-07-06T05:26:01;101353.03;;;17.38;100.00
13015;BME280;6573;57.696;11.950;2022-07-06T05:28:29;101337.06;;;17.38;100.00
13015;BME280;6573;57.696;11.950;2022-07-06T05:31:02;101352.38;;;17.27;100.00
13015;BME280;6573;57.696;11.950;2022-07-06T05:33:31;101354.97;;;17.30;100.00
13015;BME280;6573;57.696;11.950;2022-07-06T05:35:59;101351.63;;;17.20;100.00
13015;BME280;6573;57.696;11.950;2022-07-06T05:38:29;101348.94;;;17.23;100.00
13015;BME280;6573;57.696;11.950;2022-07-06T05:40:58;101351.34;;;17.34;100.00
13015;BME280;6573;57.696;11.950;2022-07-06T05:43:26;101359.97;;;17.45;100.00
13015;BME280;6573;57.696;11.950;2022-07-06T05:45:55;101331.88;;;17.32;100.00
13015;BME280;6573;57.696;11.950;2022-07-06T05:48:23;101353.75;;;17.44;100.00
13015;BME280;6573;57.696;11.950;2022-07-06T05:51:09;101364.44;;;17.43;100.00
13015;BME280;6573;57.696;11.950;2022-07-06T05:53:39;101359.13;;;17.43;100.00
13015;BME280;6573;57.696;11.950;2022-07-06T05:56:07;101375.97;;;17.42;100.00
13015;BME280;6573;57.696;11.950;2022-07-06T05:58:35;101370.66;;;17.42;100.00
13015;BME280;6573;57.696;11.950;2022-07-06T06:01:04;101366.13;;;17.47;100.00
13015;BME280;6573;57.696;11.950;2022-07-06T06:03:34;101376.91;;;17.41;100.00
13015;BME280;6573;57.696;11.950;2022-07-06T06:06:03;101372.28;;;17.49;100.00
13015;BME280;6573;57.696;11.950;2022-07-06T06:08:31;101377.59;;;17.49;100.00
13015;BME280;6573;57.696;11.950;2022-07-06T06:11:01;101379.56;;;17.41;100.00
13015;BME280;6573;57.696;11.950;2022-07-06T06:13:36;101368.63;;;17.56;100.00
13015;BME280;6573;57.696;11.950;2022-07-06T06:16:05;101375.50;;;17.66;100.00
13015;BME280;6573;57.696;11.950;2022-07-06T06:18:33;101379.03;;;17.65;100.00
13015;BME280;6573;57.696;11.950;2022-07-06T06:21:08;101382.81;;;17.55;100.00
13015;BME280;6573;57.696;11.950;2022-07-06T06:23:37;101383.44;;;17.68;100.00
13015;BME280;6573;57.696;11.950;2022-07-06T06:26:07;101388.22;;;17.49;100.00
13015;BME280;6573;57.696;11.950;2022-07-06T06:28:35;101381.81;;;17.61;100.00
13015;BME280;6573;57.696;11.950;2022-07-06T06:31:04;101391.81;;;17.48;100.00
13015;BME280;6573;57.696;11.950;2022-07-06T06:33:33;101384.72;;;17.47;100.00
13015;BME280;6573;57.696;11.950;2022-07-06T06:36:04;101394.25;;;17.60;100.00
13015;BME280;6573;57.696;11.950;2022-07-06T06:38:33;101389.19;;;17.46;100.00
13015;BME280;6573;57.696;11.950;2022-07-06T06:41:01;101388.22;;;17.49;100.00
13015;BME280;6573;57.696;11.950;2022-07-06T06:43:34;101393.53;;;17.52;100.00
13015;BME280;6573;57.696;11.950;2022-07-06T06:46:03;101379.22;;;17.58;100.00
13015;BME280;6573;57.696;11.950;2022-07-06T06:48:31;101381.13;;;17.51;100.00
13015;BME280;6573;57.696;11.950;2022-07-06T06:51:00;101391.63;;;17.57;100.00
13015;BME280;6573;57.696;11.950;2022-07-06T06:53:29;101386.25;;;17.60;100.00
13015;BME280;6573;57.696;11.950;2022-07-06T06:56:05;101387.94;;;17.64;100.00
13015;BME280;6573;57.696;11.950;2022-07-06T06:58:35;101384.50;;;17.59;100.00
13015;BME280;6573;57.696;11.950;2022-07-06T07:01:24;101386.97;;;17.68;100.00
13015;BME280;6573;57.696;11.950;2022-07-06T07:03:54;101401.88;;;17.75;100.00
13015;BME280;6573;57.696;11.950;2022-07-06T07:06:23;101394.88;;;17.71;100.00
13015;BME280;6573;57.696;11.950;2022-07-06T07:08:51;101398.44;;;17.70;100.00
13015;BME280;6573;57.696;11.950;2022-07-06T07:11:19;101412.53;;;17.75;100.00
13015;BME280;6573;57.696;11.950;2022-07-06T07:13:53;101401.94;;;17.72;100.00
13015;BME280;6573;57.696;11.950;2022-07-06T07:16:22;101402.88;;;17.71;100.00
13015;BME280;6573;57.696;11.950;2022-07-06T07:18:51;101405.38;;;17.77;100.00
13015;BME280;6573;57.696;11.950;2022-07-06T07:21:19;101401.00;;;17.75;100.00
13015;BME280;6573;57.696;11.950;2022-07-06T07:23:48;101409.03;;;17.73;100.00
13015;BME280;6573;57.696;11.950;2022-07-06T07:26:17;101394.88;;;17.71;100.00
13015;BME280;6573;57.696;11.950;2022-07-06T07:28:46;101419.16;;;17.94;100.00
13015;BME280;6573;57.696;11.950;2022-07-06T07:31:16;101417.56;;;17.87;100.00
13015;BME280;6573;57.696;11.950;2022-07-06T07:33:44;101410.63;;;17.80;100.00
13015;BME280;6573;57.696;11.950;2022-07-06T07:36:13;101408.31;;;17.65;100.00
13015;BME280;6573;57.696;11.950;2022-07-06T07:38:41;101406.50;;;18.05;100.00
13015;BME280;6573;57.696;11.950;2022-07-06T07:41:09;101412.72;;;18.75;100.00
13015;BME280;6573;57.696;11.950;2022-07-06T07:43:40;101420.69;;;19.40;100.00
13015;BME280;6573;57.696;11.950;2022-07-06T07:46:09;101412.38;;;19.78;100.00
13015;BME280;6573;57.696;11.950;2022-07-06T07:48:39;101410.38;;;20.12;100.00
13015;BME280;6573;57.696;11.950;2022-07-06T07:51:07;101403.81;;;20.22;100.00
13015;BME280;6573;57.696;11.950;2022-07-06T07:53:36;101413.59;;;20.49;100.00
13015;BME280;6573;57.696;11.950;2022-07-06T07:56:04;101416.38;;;20.97;100.00
13015;BME280;6573;57.696;11.950;2022-07-06T07:58:33;101405.00;;;21.40;100.00
13015;BME280;6573;57.696;11.950;2022-07-06T08:01:01;101424.66;;;21.39;100.00
13015;BME280;6573;57.696;11.950;2022-07-06T08:03:35;101423.38;;;21.49;100.00
13015;BME280;6573;57.696;11.950;2022-07-06T08:06:17;101423.69;;;21.63;100.00
13015;BME280;6573;57.696;11.950;2022-07-06T08:08:48;101425.09;;;21.73;100.00
13015;BME280;6573;57.696;11.950;2022-07-06T08:11:17;101428.59;;;21.29;100.00
13015;BME280;6573;57.696;11.950;2022-07-06T08:13:46;101433.06;;;21.04;100.00
13015;BME280;6573;57.696;11.950;2022-07-06T08:16:14;101430.69;;;20.96;100.00
13015;BME280;6573;57.696;11.950;2022-07-06T08:18:43;101431.09;;;20.84;100.00
13015;BME280;6573;57.696;11.950;2022-07-06T08:21:11;101432.50;;;20.70;100.00
13015;BME280;6573;57.696;11.950;2022-07-06T08:23:56;101424.41;;;20.73;100.00
13015;BME280;6573;57.696;11.950;2022-07-06T08:26:27;101420.78;;;20.49;100.00
13015;BME280;6573;57.696;11.950;2022-07-06T08:28:59;101427.41;;;20.63;100.00
13015;BME280;6573;57.696;11.950;2022-07-06T08:31:31;101427.59;;;20.57;100.00
13015;BME280;6573;57.696;11.950;2022-07-06T08:34:21;101429.56;;;20.52;100.00
13015;BME280;6573;57.696;11.950;2022-07-06T08:36:49;101425.03;;;20.28;100.00
13015;BME280;6573;57.696;11.950;2022-07-06T08:39:19;101439.75;;;20.12;100.00
13015;BME280;6573;57.696;11.950;2022-07-06T08:41:48;101427.44;;;20.08;100.00
13015;BME280;6573;57.696;11.950;2022-07-06T08:44:17;101430.75;;;20.16;100.00
13015;BME280;6573;57.696;11.950;2022-07-06T08:46:48;101432.31;;;20.49;100.00
13015;BME280;6573;57.696;11.950;2022-07-06T08:49:18;101436.53;;;20.30;100.00
13015;BME280;6573;57.696;11.950;2022-07-06T08:51:48;101427.72;;;20.28;100.00
13015;BME280;6573;57.696;11.950;2022-07-06T08:54:18;101429.31;;;20.34;100.00
13015;BME280;6573;57.696;11.950;2022-07-06T08:56:48;101432.97;;;20.30;100.00
13015;BME280;6573;57.696;11.950;2022-07-06T08:59:17;101438.91;;;20.39;100.00
13015;BME280;6573;57.696;11.950;2022-07-06T09:01:46;101438.25;;;20.33;100.00
13015;BME280;6573;57.696;11.950;2022-07-06T09:04:16;101445.63;;;19.97;100.00
13015;BME280;6573;57.696;11.950;2022-07-06T09:06:47;101459.31;;;20.14;100.00
13015;BME280;6573;57.696;11.950;2022-07-06T09:09:21;101454.34;;;20.02;100.00
13015;BME280;6573;57.696;11.950;2022-07-06T09:11:51;101453.16;;;19.83;100.00
13015;BME280;6573;57.696;11.950;2022-07-06T09:14:19;101462.47;;;19.70;100.00
13015;BME280;6573;57.696;11.950;2022-07-06T09:16:51;101451.00;;;19.37;100.00
13015;BME280;6573;57.696;11.950;2022-07-06T09:19:20;101449.59;;;19.84;100.00
13015;BME280;6573;57.696;11.950;2022-07-06T09:21:48;101462.06;;;20.11;100.00
13015;BME280;6573;57.696;11.950;2022-07-06T09:24:17;101453.25;;;19.80;100.00
13015;BME280;6573;57.696;11.950;2022-07-06T09:26:48;101473.06;;;19.73;100.00
13015;BME280;6573;57.696;11.950;2022-07-06T09:29:16;101453.38;;;19.77;100.00
13015;BME280;6573;57.696;11.950;2022-07-06T09:31:56;101469.47;;;19.74;100.00
13015;BME280;6573;57.696;11.950;2022-07-06T09:34:25;101472.03;;;20.06;100.00
13015;BME280;6573;57.696;11.950;2022-07-06T09:37:09;101483.81;;;19.70;100.00
13015;BME280;6573;57.696;11.950;2022-07-06T09:39:37;101469.13;;;19.55;100.00
13015;BME280;6573;57.696;11.950;2022-07-06T09:42:07;101477.13;;;19.57;100.00
13015;BME280;6573;57.696;11.950;2022-07-06T09:44:38;101476.16;;;19.59;100.00
13015;BME280;6573;57.696;11.950;2022-07-06T09:47:08;101479.59;;;19.30;100.00
13015;BME280;6573;57.696;11.950;2022-07-06T09:49:38;101483.34;;;18.93;100.00
13015;BME280;6573;57.696;11.950;2022-07-06T09:52:07;101481.53;;;19.25;100.00
13015;BME280;6573;57.696;11.950;2022-07-06T09:54:37;101480.97;;;19.47;100.00
13015;BME280;6573;57.696;11.950;2022-07-06T09:57:07;101483.63;;;19.47;100.00
13015;BME280;6573;57.696;11.950;2022-07-06T09:59:36;101478.41;;;19.73;100.00
13015;BME280;6573;57.696;11.950;2022-07-06T10:02:05;101484.84;;;20.24;100.00
13015;BME280;6573;57.696;11.950;2022-07-06T10:04:34;101480.47;;;19.63;100.00
13015;BME280;6573;57.696;11.950;2022-07-06T10:07:04;101472.66;;;19.57;100.00
13015;BME280;6573;57.696;11.950;2022-07-06T10:09:33;101475.19;;;19.62;100.00
13015;BME280;6573;57.696;11.950;2022-07-06T10:12:05;101469.94;;;19.59;100.00
13015;BME280;6573;57.696;11.950;2022-07-06T10:14:35;101476.00;;;19.64;100.00
13015;BME280;6573;57.696;11.950;2022-07-06T10:17:08;101478.41;;;19.73;100.00
13015;BME280;6573;57.696;11.950;2022-07-06T10:19:50;101475.78;;;19.71;100.00
13015;BME280;6573;57.696;11.950;2022-07-06T10:22:22;101496.25;;;19.71;100.00
13015;BME280;6573;57.696;11.950;2022-07-06T10:24:52;101483.28;;;19.88;100.00
13015;BME280;6573;57.696;11.950;2022-07-06T10:27:22;101473.06;;;19.73;100.00
13015;BME280;6573;57.696;11.950;2022-07-06T10:29:53;101476.72;;;19.98;100.00
13015;BME280;6573;57.696;11.950;2022-07-06T10:32:22;101484.94;;;19.92;100.00
13015;BME280;6573;57.696;11.950;2022-07-06T10:34:51;101490.38;;;19.89;100.00
13015;BME280;6573;57.696;11.950;2022-07-06T10:37:24;101494.91;;;19.87;100.00
13015;BME280;6573;57.696;11.950;2022-07-06T10:39:52;101487.50;;;19.66;100.00
13015;BME280;6573;57.696;11.950;2022-07-06T10:42:57;101500.13;;;19.61;100.00
13015;BME280;6573;57.696;11.950;2022-07-06T10:45:56;101475.63;;;19.47;100.00
13015;BME280;6573;57.696;11.950;2022-07-06T10:48:36;101490.91;;;19.71;100.00
13015;BME280;6573;57.696;11.950;2022-07-06T10:51:11;101487.34;;;19.72;100.00
13015;BME280;6573;57.696;11.950;2022-07-06T10:53:43;101491.50;;;19.80;100.00
13015;BME280;6573;57.696;11.950;2022-07-06T10:56:12;101487.59;;;19.63;100.00
13015;BME280;6573;57.696;11.950;2022-07-06T10:58:47;101493.59;;;19.71;100.00
13015;BME280;6573;57.696;11.950;2022-07-06T11:01:22;101482.44;;;19.57;100.00
13015;BME280;6573;57.696;11.950;2022-07-06T11:04:06;101489.53;;;19.58;100.00
13015;BME280;6573;57.696;11.950;2022-07-06T11:06:37;101484.31;;;19.55;100.00
13015;BME280;6573;57.696;11.950;2022-07-06T11:09:14;101473.63;;;19.55;100.00
13015;BME280;6573;57.696;11.950;2022-07-06T11:11:43;101491.72;;;19.44;100.00
13015;BME280;6573;57.696;11.950;2022-07-06T11:14:17;101467.19;;;19.29;100.00
13015;BME280;6573;57.696;11.950;2022-07-06T11:17:04;101478.75;;;19.61;100.00
13015;BME280;6573;57.696;11.950;2022-07-06T11:19:47;101465.50;;;19.58;100.00
13015;BME280;6573;57.696;11.950;2022-07-06T11:22:18;101478.22;;;19.79;100.00
13015;BME280;6573;57.696;11.950;2022-07-06T11:24:47;101488.34;;;19.97;100.00
13015;BME280;6573;57.696;11.950;2022-07-06T11:27:24;101489.78;;;19.79;100.00
13015;BME280;6573;57.696;11.950;2022-07-06T11:29:54;101476.72;;;19.98;100.00
13015;BME280;6573;57.696;11.950;2022-07-06T11:32:27;101485.59;;;19.71;100.00
13015;BME280;6573;57.696;11.950;2022-07-06T11:34:59;101480.16;;;19.74;100.00
13015;BME280;6573;57.696;11.950;2022-07-06T11:37:28;101490.09;;;19.98;100.00
13015;BME280;6573;57.696;11.950;2022-07-06T11:39:57;101486.03;;;20.14;100.00
13015;BME280;6573;57.696;11.950;2022-07-06T11:42:34;101472.03;;;20.06;100.00
13015;BME280;6573;57.696;11.950;2022-07-06T11:45:04;101475.09;;;19.94;100.00
13015;BME280;6573;57.696;11.950;2022-07-06T11:47:34;101486.50;;;19.99;100.00
13015;BME280;6573;57.696;11.950;2022-07-06T11:50:05;101486.38;;;20.02;100.00
13015;BME280;6573;57.696;11.950;2022-07-06T11:52:37;101456.09;;;20.03;100.00
13015;BME280;6573;57.696;11.950;2022-07-06T11:55:06;101481.44;;;19.90;100.00
13015;BME280;6573;57.696;11.950;2022-07-06T11:57:34;101494.31;;;19.76;100.00
13015;BME280;6573;57.696;11.950;2022-07-06T12:00:04;101497.56;;;19.87;100.00
13015;BME280;6573;57.696;11.950;2022-07-06T12:02:37;101494.91;;;19.87;100.00
13015;BME280;6573;57.696;11.950;2022-07-06T12:05:06;101495.97;;;19.80;100.00
13015;BME280;6573;57.696;11.950;2022-07-06T12:07:35;101495.44;;;19.98;100.00
13015;BME280;6573;57.696;11.950;2022-07-06T12:10:03;101490.09;;;19.98;100.00
13015;BME280;6573;57.696;11.950;2022-07-06T12:12:33;101492.31;;;19.84;100.00
13015;BME280;6573;57.696;11.950;2022-07-06T12:15:01;101490.38;;;19.89;100.00
13015;BME280;6573;57.696;11.950;2022-07-06T12:17:29;101487.25;;;20.04;100.00
13015;BME280;6573;57.696;11.950;2022-07-06T12:20:03;101484.66;;;20.01;100.00
13015;BME280;6573;57.696;11.950;2022-07-06T12:22:32;101477.56;;;20.00;100.00
13015;BME280;6573;57.696;11.950;2022-07-06T12:25:01;101469.38;;;20.06;100.00
13015;BME280;6573;57.696;11.950;2022-07-06T12:27:34;101471.63;;;20.18;100.00
13015;BME280;6573;57.696;11.950;2022-07-06T12:30:09;101477.75;;;19.94;100.00
13015;BME280;6573;57.696;11.950;2022-07-06T12:32:38;101480.88;;;20.08;100.00
13015;BME280;6573;57.696;11.950;2022-07-06T12:35:09;101478.84;;;20.16;100.00
13015;BME280;6573;57.696;11.950;2022-07-06T12:37:38;101463.66;;;20.44;100.00
13015;BME280;6573;57.696;11.950;2022-07-06T12:40:25;101478.47;;;20.28;100.00
13015;BME280;6573;57.696;11.950;2022-07-06T12:42:54;101467.56;;;20.34;100.00
13015;BME280;6573;57.696;11.950;2022-07-06T12:45:26;101473.59;;;20.13;100.00
13015;BME280;6573;57.696;11.950;2022-07-06T12:47:58;101473.59;;;20.13;100.00
13015;BME280;6573;57.696;11.950;2022-07-06T12:50:33;101476.25;;;20.13;100.00
13015;BME280;6573;57.696;11.950;2022-07-06T12:53:03;101478.56;;;20.25;100.00
13015;BME280;6573;57.696;11.950;2022-07-06T12:55:33;101475.47;;;20.39;100.00